Catarina, Texas
Current Conditions -  °F | °C
As of 8:35 AM on Friday 31 Oct 2014 (Local Time) from KCZT Reporting Station
Heavy Rain Heavy Rain  
Wind Chill: 63°   Ceiling: 800
Heat Index: 63°   Visibility: 3mi
Dew Point: 63°   Wind: 3mph
Humidity: 100%   Direction: 120°ESE
Pressure: 30.2"   Gusts: NA
Location:  28.35°N, 99.61°W
Report Text: KCZT 311335Z AUTO 12003KT 3SM +RA BKN008 OVC013 17/17 A3020 RMK AO2 LTG DSNT E THRU S P0016
Loading
Personal Weather Stations






























Interactive Weather Map
Tropical Storm Tracking
New forecast layout! Learn more

10-Day Weather Forecast

Advertisements
Track Severe Weather on mobile